Time;durP1;ratioP1;P1;durP2;ratioP2;P2;SDS_P1;SDS_P2;PMS_P1;PMS_P2;Temp;Humidity;BMP_temperature;BMP_pressure;BME280_temperature;BME280_humidity;BME280_pressure;Samples;Min_cycle;Max_cycle;Signal;HPM_P1;HPM_P2
2021/04/02 00:02:08;;;;;;;9.32;6.07;;;6.70;99.90;;;;;;5086154;28;20024;-46
2021/04/02 00:04:33;;;;;;;7.00;5.88;;;6.70;99.90;;;;;;5086397;28;20028;-46
2021/04/02 00:07:00;;;;;;;7.28;5.78;;;6.60;99.90;;;;;;5070917;28;20024;-45
2021/04/02 00:09:25;;;;;;;7.35;5.72;;;6.60;99.90;;;;;;5047845;28;20077;-45
2021/04/02 00:11:51;;;;;;;6.50;5.13;;;6.60;99.90;;;;;;5066411;28;20587;-46
2021/04/02 00:14:16;;;;;;;6.07;4.82;;;6.60;99.90;;;;;;5065894;28;20032;-44
2021/04/02 00:16:43;;;;;;;5.57;4.53;;;6.60;99.90;;;;;;5065796;28;20089;-46
2021/04/02 00:19:08;;;;;;;5.00;3.97;;;6.50;99.90;;;;;;5066075;28;20072;-45
2021/04/02 00:21:33;;;;;;;5.03;3.97;;;6.50;99.90;;;;;;5066258;28;20068;-45
2021/04/02 00:23:59;;;;;;;5.03;3.97;;;6.40;99.90;;;;;;5079894;28;20028;-46
2021/04/02 00:26:25;;;;;;;4.28;3.78;;;6.40;99.90;;;;;;5085909;28;20020;-45
2021/04/02 00:28:52;;;;;;;4.28;3.88;;;6.50;99.90;;;;;;5068102;28;20079;-45
2021/04/02 00:31:19;;;;;;;4.90;3.88;;;6.50;99.90;;;;;;5086164;28;20525;-45
2021/04/02 00:33:44;;;;;;;4.82;3.92;;;6.50;99.90;;;;;;5085717;28;20043;-48
2021/04/02 00:36:10;;;;;;;7.57;4.45;;;6.50;99.90;;;;;;5085238;28;20262;-45
2021/04/02 00:38:35;;;;;;;7.05;4.10;;;6.50;99.90;;;;;;5086633;28;20032;-47
2021/04/02 00:41:05;;;;;;;4.40;3.85;;;6.50;99.90;;;;;;5086307;28;20089;-45
2021/04/02 00:43:37;;;;;;;6.57;4.10;;;6.50;99.90;;;;;;5086375;28;20053;-47
2021/04/02 00:46:04;;;;;;;4.55;3.85;;;6.50;99.90;;;;;;5067559;28;20205;-46
2021/04/02 00:48:29;;;;;;;5.05;3.75;;;6.60;99.90;;;;;;5086063;28;20024;-44
2021/04/02 00:51:04;;;;;;;3.95;3.50;;;6.50;99.90;;;;;;5086321;28;20044;-45
2021/04/02 00:53:32;;;;;;;4.32;3.92;;;6.50;99.90;;;;;;5085824;28;20035;-45
2021/04/02 00:56:00;;;;;;;5.20;4.03;;;6.50;99.90;;;;;;5085133;28;20034;-45
2021/04/02 00:58:29;;;;;;;11.57;4.07;;;6.50;99.90;;;;;;5086143;28;20089;-45
2021/04/02 01:00:54;;;;;;;5.78;4.18;;;6.50;99.90;;;;;;5086037;28;20026;-46
2021/04/02 01:03:22;;;;;;;5.28;3.85;;;6.50;99.90;;;;;;5085824;28;20032;-45
2021/04/02 01:05:50;;;;;;;4.55;3.22;;;6.50;99.90;;;;;;5082170;28;20034;-45
2021/04/02 01:08:22;;;;;;;5.25;4.18;;;6.50;99.90;;;;;;5082258;28;20024;-47
2021/04/02 01:10:49;;;;;;;6.80;3.78;;;6.50;99.90;;;;;;5086150;28;20101;-48
2021/04/02 01:13:17;;;;;;;4.38;3.97;;;6.50;99.90;;;;;;5085987;28;20024;-45
2021/04/02 01:15:49;;;;;;;7.00;3.95;;;6.50;99.90;;;;;;5087386;28;20566;-45
2021/04/02 01:18:40;;;;;;;6.35;4.10;;;6.50;99.90;;;;;;5089587;28;20031;-46
2021/04/02 01:21:23;;;;;;;4.88;4.38;;;6.50;99.90;;;;;;5089529;28;20019;-48
2021/04/02 01:24:22;;;;;;;8.55;4.13;;;6.60;99.90;;;;;;5089353;28;20485;-45
2021/04/02 01:27:09;;;;;;;5.45;4.00;;;6.60;99.90;;;;;;5089217;28;20035;-45
2021/04/02 01:29:44;;;;;;;8.10;4.55;;;6.50;99.90;;;;;;5088314;28;20417;-45
2021/04/02 01:32:14;;;;;;;7.55;3.95;;;6.50;99.90;;;;;;5089406;28;20036;-45
2021/04/02 01:34:48;;;;;;;4.05;3.55;;;6.50;99.90;;;;;;5071059;28;20099;-44
2021/04/02 01:37:31;;;;;;;5.47;4.28;;;6.50;99.90;;;;;;5088698;28;20048;-45
2021/04/02 01:40:01;;;;;;;5.30;3.92;;;6.50;99.90;;;;;;5089302;28;20035;-45
2021/04/02 01:42:28;;;;;;;4.40;4.00;;;6.60;99.90;;;;;;5089382;28;20019;-46
2021/04/02 01:44:55;;;;;;;5.00;4.50;;;6.60;99.90;;;;;;5070567;28;20386;-44
2021/04/02 01:47:23;;;;;;;5.22;4.30;;;6.60;99.90;;;;;;5089146;28;20028;-45
2021/04/02 01:49:51;;;;;;;8.98;4.20;;;6.50;99.90;;;;;;5089271;28;20028;-45
2021/04/02 01:52:17;;;;;;;4.10;3.67;;;6.50;99.90;;;;;;5089412;28;20111;-45
2021/04/02 01:54:43;;;;;;;5.82;4.75;;;6.50;99.90;;;;;;5088560;28;20032;-45
2021/04/02 01:57:10;;;;;;;5.70;4.68;;;6.50;99.90;;;;;;5070105;28;20027;-47
2021/04/02 01:59:37;;;;;;;8.95;5.30;;;6.40;99.90;;;;;;5088924;28;20008;-45
2021/04/02 02:02:04;;;;;;;7.80;5.10;;;6.40;99.90;;;;;;5070690;28;20127;-46
2021/04/02 02:04:31;;;;;;;5.88;5.10;;;6.30;99.90;;;;;;5088810;28;20503;-46
2021/04/02 02:06:59;;;;;;;5.72;5.10;;;6.30;99.90;;;;;;5085117;28;20025;-46
2021/04/02 02:09:33;;;;;;;6.47;4.82;;;6.40;99.90;;;;;;5084812;28;20020;-45
2021/04/02 02:12:02;;;;;;;6.07;5.47;;;6.30;99.90;;;;;;5088821;28;20074;-46
2021/04/02 02:14:30;;;;;;;7.55;5.85;;;6.30;99.90;;;;;;5088402;28;20504;-47
2021/04/02 02:17:00;;;;;;;6.50;5.43;;;6.20;99.90;;;;;;5088301;28;20031;-45
2021/04/02 02:19:27;;;;;;;6.20;5.38;;;6.20;99.90;;;;;;5088553;28;20065;-49
2021/04/02 02:21:56;;;;;;;5.97;5.38;;;6.30;99.90;;;;;;5088402;28;20028;-46
2021/04/02 02:24:22;;;;;;;6.57;5.88;;;6.30;99.90;;;;;;5088439;28;20504;-48
2021/04/02 02:26:48;;;;;;;7.55;5.97;;;6.30;99.90;;;;;;5087710;28;20032;-44
2021/04/02 02:29:14;;;;;;;9.43;6.38;;;6.30;99.90;;;;;;5088777;28;20074;-45
2021/04/02 02:31:40;;;;;;;6.72;5.90;;;6.30;99.90;;;;;;5088479;28;20051;-46
2021/04/02 02:34:07;;;;;;;7.15;5.07;;;6.30;99.90;;;;;;5087795;28;20412;-49
2021/04/02 02:36:33;;;;;;;6.28;5.05;;;6.30;99.90;;;;;;5087164;28;20448;-44
2021/04/02 02:39:00;;;;;;;5.38;4.88;;;6.30;99.90;;;;;;5070234;28;20024;-46
2021/04/02 02:41:27;;;;;;;6.78;5.25;;;6.30;99.90;;;;;;5087695;28;20028;-46
2021/04/02 02:43:54;;;;;;;7.35;5.22;;;6.30;99.90;;;;;;5087633;28;20020;-46
2021/04/02 02:46:20;;;;;;;6.13;5.05;;;6.20;99.90;;;;;;5087679;28;20028;-45
2021/04/02 02:48:49;;;;;;;7.57;5.88;;;6.20;99.90;;;;;;5088228;28;20069;-45
2021/04/02 02:51:16;;;;;;;5.80;4.82;;;6.20;99.90;;;;;;5070181;28;20032;-45
2021/04/02 02:53:43;;;;;;;5.95;4.63;;;6.20;99.90;;;;;;5088038;28;20024;-45
2021/04/02 02:56:11;;;;;;;6.07;5.13;;;6.30;99.90;;;;;;5069093;28;20036;-48
2021/04/02 02:58:39;;;;;;;5.93;4.90;;;6.30;99.90;;;;;;5088538;28;20028;-47
2021/04/02 03:01:07;;;;;;;8.52;5.22;;;6.30;99.90;;;;;;5087962;28;20032;-45
2021/04/02 03:03:34;;;;;;;4.82;4.30;;;6.40;99.90;;;;;;5087427;28;20347;-45
2021/04/02 03:06:01;;;;;;;7.13;4.10;;;6.40;99.90;;;;;;5087174;28;20028;-44
2021/04/02 03:08:31;;;;;;;5.85;4.18;;;6.40;99.90;;;;;;5082451;28;20051;-45
2021/04/02 03:10:58;;;;;;;5.22;4.47;;;6.30;99.90;;;;;;5075151;28;20449;-46
2021/04/02 03:13:24;;;;;;;4.75;4.25;;;6.40;99.90;;;;;;5049142;28;20048;-46
2021/04/02 03:15:55;;;;;;;6.63;4.53;;;6.40;99.90;;;;;;5066311;28;20036;-49
2021/04/02 03:18:21;;;;;;;8.68;4.35;;;6.50;99.90;;;;;;5067182;28;20032;-47
2021/04/02 03:20:49;;;;;;;5.70;4.82;;;6.50;99.90;;;;;;5067679;28;20040;-46
2021/04/02 03:23:16;;;;;;;5.60;4.50;;;6.40;99.90;;;;;;5074369;28;20020;-46
2021/04/02 03:25:46;;;;;;;7.15;4.85;;;6.50;99.90;;;;;;5086813;28;20485;-45
2021/04/02 03:28:12;;;;;;;5.95;4.47;;;6.50;99.90;;;;;;5087618;28;20082;-45
2021/04/02 03:30:38;;;;;;;9.48;5.13;;;6.50;99.90;;;;;;5069050;28;20552;-45
2021/04/02 03:33:13;;;;;;;6.80;4.80;;;6.40;99.90;;;;;;5086856;28;20040;-45
2021/04/02 03:35:40;;;;;;;6.95;4.38;;;6.40;99.90;;;;;;5086436;28;20042;-45
2021/04/02 03:38:08;;;;;;;6.18;4.78;;;6.30;99.90;;;;;;5086039;28;20031;-45
2021/04/02 03:40:35;;;;;;;6.68;5.10;;;6.30;99.90;;;;;;5087066;28;20031;-46
2021/04/02 03:43:04;;;;;;;6.95;4.70;;;6.30;99.90;;;;;;5087116;28;20023;-46
2021/04/02 03:45:31;;;;;;;7.22;4.63;;;6.30;99.90;;;;;;5086479;28;20115;-46
2021/04/02 03:48:00;;;;;;;4.82;4.22;;;6.20;99.90;;;;;;5086592;28;20067;-45
2021/04/02 03:50:30;;;;;;;6.78;4.47;;;6.10;99.90;;;;;;5086956;28;20020;-45
2021/04/02 03:53:15;;;;;;;6.13;4.10;;;6.10;99.90;;;;;;5086718;28;20032;-44
2021/04/02 03:55:44;;;;;;;7.00;4.28;;;6.10;99.90;;;;;;5085668;28;20039;-45
2021/04/02 03:58:12;;;;;;;5.30;3.65;;;6.00;99.90;;;;;;5086701;28;20056;-44
2021/04/02 04:00:46;;;;;;;5.47;4.20;;;6.00;99.90;;;;;;5068781;28;20291;-46
2021/04/02 04:03:15;;;;;;;8.23;3.95;;;6.00;99.90;;;;;;5086411;28;20397;-44
2021/04/02 04:05:43;;;;;;;4.70;3.85;;;6.00;99.90;;;;;;5067305;28;20390;-44
2021/04/02 04:08:12;;;;;;;5.35;4.38;;;5.90;99.90;;;;;;5086733;28;20032;-45
2021/04/02 04:10:38;;;;;;;4.15;3.75;;;6.00;99.90;;;;;;5080925;28;20551;-45
2021/04/02 04:13:04;;;;;;;7.78;3.60;;;5.90;99.90;;;;;;5066100;28;20119;-44
2021/04/02 04:15:30;;;;;;;4.72;3.78;;;5.90;99.90;;;;;;5065464;28;20029;-45
2021/04/02 04:17:57;;;;;;;4.43;3.70;;;5.90;99.90;;;;;;5068814;28;20068;-45
2021/04/02 04:20:23;;;;;;;4.38;3.60;;;6.00;99.90;;;;;;5086779;28;20024;-44
2021/04/02 04:22:50;;;;;;;6.22;3.30;;;6.00;99.90;;;;;;5086358;28;20118;-47
2021/04/02 04:25:22;;;;;;;4.22;3.42;;;6.00;99.90;;;;;;5086037;28;20368;-48
2021/04/02 04:27:49;;;;;;;4.68;4.00;;;6.00;99.90;;;;;;5086355;28;20505;-45
2021/04/02 04:30:16;;;;;;;5.78;3.97;;;6.00;99.90;;;;;;5086653;28;20028;-48
2021/04/02 04:32:42;;;;;;;5.07;3.30;;;5.90;99.90;;;;;;5086397;28;20064;-45
2021/04/02 04:35:14;;;;;;;5.53;3.97;;;6.00;99.90;;;;;;5067017;28;20513;-44
2021/04/02 04:37:42;;;;;;;6.20;3.78;;;6.00;99.90;;;;;;5068174;28;20119;-44
2021/04/02 04:40:09;;;;;;;5.43;4.38;;;5.90;99.90;;;;;;5086443;28;20162;-46
2021/04/02 04:42:36;;;;;;;6.95;3.63;;;5.90;99.90;;;;;;5086417;28;20021;-44
2021/04/02 04:45:04;;;;;;;4.25;3.20;;;5.90;99.90;;;;;;5085892;28;20702;-44
2021/04/02 04:47:30;;;;;;;6.10;3.42;;;5.90;99.90;;;;;;5086075;28;20162;-45
2021/04/02 04:49:55;;;;;;;4.82;3.58;;;5.90;99.90;;;;;;5089264;28;20044;-44
2021/04/02 04:52:22;;;;;;;4.00;3.38;;;5.90;99.90;;;;;;5090422;28;20052;-45
2021/04/02 04:54:52;;;;;;;3.60;3.25;;;5.80;99.90;;;;;;5089986;28;20012;-44
2021/04/02 04:57:19;;;;;;;5.80;3.83;;;5.80;99.90;;;;;;5090068;28;20580;-45
2021/04/02 04:59:49;;;;;;;3.75;3.28;;;5.80;99.90;;;;;;5090369;28;20443;-44
2021/04/02 05:02:17;;;;;;;5.57;3.28;;;5.80;99.90;;;;;;5089655;28;20052;-45
2021/04/02 05:04:45;;;;;;;7.95;3.45;;;5.70;99.90;;;;;;5086819;28;20114;-44
2021/04/02 05:07:13;;;;;;;4.38;3.70;;;5.70;99.90;;;;;;5088650;28;20031;-45
2021/04/02 05:09:41;;;;;;;4.40;3.45;;;5.70;99.90;;;;;;5088989;28;20097;-45
2021/04/02 05:12:09;;;;;;;3.60;3.20;;;5.70;99.90;;;;;;5086286;28;20044;-45
2021/04/02 05:14:37;;;;;;;4.30;3.40;;;5.60;99.90;;;;;;5088146;28;20043;-45
2021/04/02 05:17:04;;;;;;;3.78;3.28;;;5.60;99.90;;;;;;5069840;28;20237;-45
2021/04/02 05:19:31;;;;;;;5.13;4.03;;;5.50;99.90;;;;;;5089415;28;20032;-44
2021/04/02 05:21:56;;;;;;;4.15;3.40;;;5.50;99.90;;;;;;5090061;28;20040;-45
2021/04/02 05:24:23;;;;;;;5.72;3.42;;;5.50;99.90;;;;;;5089408;28;20111;-45
2021/04/02 05:26:49;;;;;;;3.45;3.10;;;5.50;99.90;;;;;;5089337;28;20020;-45
2021/04/02 05:29:15;;;;;;;5.43;3.70;;;5.50;99.90;;;;;;5089656;28;20071;-46
2021/04/02 05:31:40;;;;;;;4.32;3.67;;;5.50;99.90;;;;;;5089334;28;20097;-46
2021/04/02 05:34:06;;;;;;;4.68;3.78;;;5.50;99.90;;;;;;5088734;28;20448;-48
2021/04/02 05:36:32;;;;;;;6.20;4.35;;;5.60;99.90;;;;;;5088339;28;20036;-46
2021/04/02 05:38:57;;;;;;;4.57;3.17;;;5.60;99.90;;;;;;5089747;28;20032;-46
2021/04/02 05:41:28;;;;;;;3.90;3.40;;;5.70;99.90;;;;;;5071398;28;20116;-46
2021/04/02 05:44:01;;;;;;;5.93;3.15;;;5.70;99.90;;;;;;5089621;28;20081;-45
2021/04/02 05:46:26;;;;;;;6.45;3.13;;;5.80;99.90;;;;;;5089052;28;20025;-45
2021/04/02 05:49:03;;;;;;;3.70;3.15;;;5.80;99.90;;;;;;5088300;28;20672;-45
2021/04/02 05:51:29;;;;;;;5.60;3.30;;;5.80;99.90;;;;;;5089480;28;20080;-46
2021/04/02 05:53:56;;;;;;;4.50;3.25;;;5.80;99.90;;;;;;5088960;28;20024;-44
2021/04/02 05:56:22;;;;;;;6.15;3.60;;;5.80;99.90;;;;;;5069898;28;20027;-48
2021/04/02 05:58:49;;;;;;;3.20;2.88;;;5.90;99.90;;;;;;5089000;28;20039;-45
2021/04/02 06:01:15;;;;;;;5.45;3.13;;;5.90;99.90;;;;;;5070240;28;20039;-46
2021/04/02 06:03:41;;;;;;;3.47;2.80;;;5.90;99.90;;;;;;5088811;28;20397;-44
2021/04/02 06:06:11;;;;;;;5.07;3.42;;;6.00;99.90;;;;;;5088380;28;20093;-45
2021/04/02 06:08:37;;;;;;;3.92;3.08;;;6.00;99.90;;;;;;5089108;28;20046;-45
2021/04/02 06:11:02;;;;;;;3.72;2.88;;;6.10;99.90;;;;;;5088785;28;20036;-48
2021/04/02 06:13:28;;;;;;;4.07;3.67;;;6.20;99.90;;;;;;5084419;28;20111;-45
2021/04/02 06:15:55;;;;;;;6.72;3.40;;;6.20;99.90;;;;;;5087387;28;20027;-44
2021/04/02 06:18:24;;;;;;;4.28;3.63;;;6.20;99.90;;;;;;5088369;28;20516;-44
2021/04/02 06:20:51;;;;;;;3.30;3.00;;;6.20;99.90;;;;;;5088524;28;20077;-45
2021/04/02 06:23:24;;;;;;;5.28;3.33;;;6.20;99.90;;;;;;5088702;28;20024;-46
2021/04/02 06:25:51;;;;;;;5.57;3.30;;;6.20;99.90;;;;;;5086914;28;20055;-45
2021/04/02 06:28:31;;;;;;;3.50;3.10;;;6.20;99.90;;;;;;5088140;28;20020;-47
2021/04/02 06:31:06;;;;;;;4.00;3.20;;;6.20;99.90;;;;;;5086064;28;20036;-46
2021/04/02 06:33:41;;;;;;;3.70;2.78;;;6.30;99.90;;;;;;5084730;28;20493;-48
2021/04/02 06:36:20;;;;;;;5.68;3.08;;;6.30;99.90;;;;;;5086251;28;20047;-45
2021/04/02 06:38:48;;;;;;;6.57;3.35;;;6.30;99.90;;;;;;5089509;28;20024;-45
2021/04/02 06:41:15;;;;;;;4.53;3.42;;;6.30;99.90;;;;;;5098962;28;20030;-45
2021/04/02 06:43:44;;;;;;;4.47;3.40;;;6.30;99.90;;;;;;5097424;28;20047;-45
2021/04/02 06:46:22;;;;;;;5.82;3.03;;;6.20;99.90;;;;;;5087495;28;20063;-45
2021/04/02 06:48:49;;;;;;;4.22;3.08;;;6.10;99.90;;;;;;5085614;28;20070;-45
2021/04/02 06:51:20;;;;;;;4.22;2.95;;;6.10;99.90;;;;;;5087525;28;20123;-46
2021/04/02 06:53:49;;;;;;;2.58;2.35;;;6.00;99.90;;;;;;5069008;28;20032;-45
2021/04/02 06:56:16;;;;;;;3.50;2.70;;;6.00;99.90;;;;;;5086165;28;20038;-45
2021/04/02 06:58:43;;;;;;;3.33;2.90;;;6.00;99.90;;;;;;5087608;28;20028;-45
2021/04/02 07:01:10;;;;;;;2.60;2.40;;;6.10;99.90;;;;;;5087368;28;20044;-48
2021/04/02 07:03:36;;;;;;;4.13;2.55;;;6.10;99.90;;;;;;5087211;28;20541;-46
2021/04/02 07:06:03;;;;;;;4.45;2.40;;;6.10;99.90;;;;;;5086637;28;20043;-46
2021/04/02 07:08:30;;;;;;;7.05;2.78;;;6.10;99.90;;;;;;5087252;28;20403;-46
2021/04/02 07:10:57;;;;;;;2.50;2.30;;;6.10;99.90;;;;;;5095175;28;20093;-45
2021/04/02 07:13:28;;;;;;;3.25;2.80;;;6.20;99.90;;;;;;5091650;28;20030;-46
2021/04/02 07:15:56;;;;;;;5.07;2.60;;;6.30;99.90;;;;;;5093723;28;20068;-45
2021/04/02 07:18:22;;;;;;;3.28;2.67;;;6.50;99.90;;;;;;5092122;28;20074;-44
2021/04/02 07:20:49;;;;;;;3.92;2.50;;;6.70;99.90;;;;;;5096256;28;20023;-44
2021/04/02 07:23:16;;;;;;;3.90;3.00;;;6.80;99.90;;;;;;5095479;28;20380;-45
2021/04/02 07:25:43;;;;;;;3.92;3.15;;;7.00;99.90;;;;;;5091663;28;20059;-45
2021/04/02 07:28:09;;;;;;;3.58;2.50;;;7.20;99.90;;;;;;5095113;28;20019;-45
2021/04/02 07:30:35;;;;;;;2.42;2.22;;;7.40;99.90;;;;;;5087902;28;20032;-44
2021/04/02 07:33:04;;;;;;;3.58;2.25;;;7.60;99.90;;;;;;5096618;28;20054;-45
2021/04/02 07:35:30;;;;;;;2.60;2.40;;;7.90;99.90;;;;;;5095754;28;20139;-45
2021/04/02 07:37:59;;;;;;;3.22;2.17;;;8.00;99.90;;;;;;5091666;28;20087;-48
2021/04/02 07:40:32;;;;;;;4.57;2.90;;;8.10;99.90;;;;;;5095886;28;20064;-47
2021/04/02 07:43:00;;;;;;;4.10;2.45;;;7.90;99.90;;;;;;5091163;28;20210;-45
2021/04/02 07:45:34;;;;;;;2.63;2.25;;;8.00;99.90;;;;;;5094597;28;20107;-45
2021/04/02 07:48:23;;;;;;;2.33;2.13;;;8.00;99.90;;;;;;5074487;28;20504;-47
2021/04/02 07:50:49;;;;;;;2.42;1.95;;;8.10;99.90;;;;;;5095716;28;20030;-46
2021/04/02 07:53:18;;;;;;;5.35;2.38;;;8.30;99.90;;;;;;5094687;28;20024;-46
2021/04/02 07:55:48;;;;;;;2.05;1.92;;;8.40;99.90;;;;;;5094676;28;20035;-44
2021/04/02 07:58:22;;;;;;;2.50;2.30;;;8.50;99.90;;;;;;5096464;28;20070;-45
2021/04/02 08:00:52;;;;;;;2.30;1.85;;;8.30;99.90;;;;;;5077540;28;20032;-46
2021/04/02 08:03:17;;;;;;;2.40;2.20;;;8.30;99.90;;;;;;5092018;28;20023;-46
2021/04/02 08:05:57;;;;;;;1.70;1.60;;;8.30;99.90;;;;;;5095265;28;20031;-46
2021/04/02 08:08:24;;;;;;;3.37;2.03;;;8.50;99.90;;;;;;5093577;28;20046;-45
2021/04/02 08:11:01;;;;;;;2.22;1.98;;;8.80;99.90;;;;;;5094735;28;20115;-47
2021/04/02 08:13:27;;;;;;;3.50;2.58;;;9.60;99.90;;;;;;5094653;28;20328;-45
2021/04/02 08:15:52;;;;;;;2.60;2.30;;;10.20;98.00;;;;;;5083063;28;20048;-45
2021/04/02 08:18:25;;;;;;;4.80;2.67;;;10.10;97.70;;;;;;5095353;28;20046;-46
2021/04/02 08:20:54;;;;;;;2.72;2.30;;;9.70;98.00;;;;;;5096131;28;20107;-45
2021/04/02 08:23:22;;;;;;;3.13;2.47;;;9.60;97.70;;;;;;5091952;28;20027;-47
2021/04/02 08:25:57;;;;;;;4.00;2.50;;;9.40;98.40;;;;;;5086874;28;20024;-46
2021/04/02 08:28:25;;;;;;;4.38;2.15;;;9.30;99.40;;;;;;5085721;28;20028;-46
2021/04/02 08:30:52;;;;;;;5.63;2.67;;;9.70;98.80;;;;;;5067754;28;20161;-46
2021/04/02 08:33:18;;;;;;;3.88;2.72;;;9.80;98.60;;;;;;5086337;28;20028;-46
2021/04/02 08:35:45;;;;;;;2.50;2.30;;;10.00;98.50;;;;;;5084904;28;20026;-46
2021/04/02 08:38:11;;;;;;;2.40;2.20;;;10.30;97.60;;;;;;5085456;28;20046;-46
2021/04/02 08:40:38;;;;;;;4.38;2.65;;;10.40;96.20;;;;;;5086121;28;20028;-45
2021/04/02 08:43:05;;;;;;;3.47;2.13;;;10.60;94.00;;;;;;5086287;28;20347;-47
2021/04/02 08:45:36;;;;;;;2.15;1.90;;;10.60;92.70;;;;;;5085014;28;20043;-44
2021/04/02 08:48:03;;;;;;;2.67;2.20;;;11.10;92.40;;;;;;5085188;28;20183;-45
2021/04/02 08:50:29;;;;;;;2.10;1.90;;;11.30;91.60;;;;;;5085078;28;20082;-46
2021/04/02 08:53:06;;;;;;;2.10;1.90;;;11.20;90.90;;;;;;5085617;28;20507;-45
2021/04/02 08:55:32;;;;;;;1.50;1.40;;;12.00;88.90;;;;;;5083091;28;20493;-46
2021/04/02 08:57:58;;;;;;;2.85;1.52;;;13.20;83.20;;;;;;5084739;28;20022;-47
2021/04/02 09:00:25;;;;;;;2.55;1.55;;;14.50;72.20;;;;;;5082682;28;20343;-48
2021/04/02 09:02:51;;;;;;;2.78;1.42;;;16.50;64.30;;;;;;5084987;28;20016;-45
2021/04/02 09:05:16;;;;;;;2.85;1.75;;;17.20;56.50;;;;;;5084097;28;20655;-45
2021/04/02 09:07:43;;;;;;;4.63;2.72;;;18.60;54.90;;;;;;5084575;28;20020;-46
2021/04/02 09:10:16;;;;;;;1.55;1.45;;;18.50;52.90;;;;;;5085491;28;20397;-46
2021/04/02 09:12:45;;;;;;;1.60;1.45;;;19.60;48.10;;;;;;5085598;28;20063;-47
2021/04/02 09:15:20;;;;;;;2.72;1.48;;;18.50;50.30;;;;;;5082280;28;20028;-49
2021/04/02 09:17:46;;;;;;;2.05;1.65;;;18.80;51.90;;;;;;5078224;28;20025;-51
2021/04/02 09:20:13;;;;;;;2.20;2.00;;;18.80;50.40;;;;;;5085140;28;20024;-48
2021/04/02 09:22:42;;;;;;;3.35;2.63;;;18.70;49.50;;;;;;5085753;28;20066;-46
2021/04/02 09:25:08;;;;;;;3.22;2.90;;;19.00;48.10;;;;;;5085479;28;20077;-45
2021/04/02 09:27:38;;;;;;;2.42;2.22;;;18.70;49.70;;;;;;5067600;28;20407;-47
2021/04/02 09:30:06;;;;;;;3.63;3.30;;;17.30;51.80;;;;;;5067504;28;20028;-47
2021/04/02 09:32:33;;;;;;;3.13;2.85;;;17.10;50.20;;;;;;5086312;28;20059;-46
2021/04/02 09:35:00;;;;;;;3.15;2.92;;;17.60;52.20;;;;;;5084602;28;20017;-46
2021/04/02 09:37:26;;;;;;;3.58;3.25;;;18.50;51.00;;;;;;5088512;28;20028;-46
2021/04/02 09:40:18;;;;;;;3.50;3.00;;;19.50;49.40;;;;;;5089153;28;20028;-46
2021/04/02 09:42:48;;;;;;;4.00;3.20;;;19.70;46.60;;;;;;5084559;28;20044;-46
2021/04/02 09:45:14;;;;;;;7.47;3.88;;;19.20;48.20;;;;;;5068883;28;20024;-46
2021/04/02 09:47:44;;;;;;;4.50;3.90;;;20.00;46.10;;;;;;5052536;28;20028;-47
2021/04/02 09:50:11;;;;;;;5.55;4.47;;;19.50;45.60;;;;;;5068361;28;20025;-52
2021/04/02 09:52:40;;;;;;;3.75;3.45;;;19.80;46.80;;;;;;5071103;28;20024;-47
2021/04/02 09:55:08;;;;;;;4.33;3.93;;;20.50;46.30;;;;;;5073928;28;20330;-46
2021/04/02 09:57:34;;;;;;;5.57;3.63;;;21.30;45.50;;;;;;5067947;28;20075;-48
2021/04/02 09:59:59;;;;;;;7.40;4.50;;;22.20;45.40;;;;;;5068743;28;20028;-46
2021/04/02 10:02:26;;;;;;;6.15;5.03;;;21.50;42.50;;;;;;5068875;28;20036;-46
2021/04/02 10:04:52;;;;;;;5.47;4.88;;;20.70;46.80;;;;;;5068145;28;20020;-46
2021/04/02 10:07:17;;;;;;;6.50;5.80;;;20.40;47.30;;;;;;5089158;28;20369;-46
2021/04/02 10:09:43;;;;;;;7.72;6.38;;;18.70;48.60;;;;;;5088664;28;20481;-48
2021/04/02 10:12:09;;;;;;;9.23;6.75;;;17.30;51.40;;;;;;5088531;28;20516;-46
2021/04/02 10:14:35;;;;;;;13.35;8.27;;;16.10;56.60;;;;;;5088757;28;20047;-46
2021/04/02 10:17:03;;;;;;;8.45;6.85;;;15.90;57.10;;;;;;5086805;28;20028;-46
2021/04/02 10:19:29;;;;;;;12.68;7.85;;;15.80;56.10;;;;;;5086297;28;20035;-48
2021/04/02 10:21:56;;;;;;;9.63;6.20;;;15.10;56.40;;;;;;5087273;28;20077;-45
2021/04/02 10:24:21;;;;;;;7.97;5.70;;;15.60;58.50;;;;;;5087367;28;20244;-47
2021/04/02 10:26:48;;;;;;;8.48;5.93;;;15.90;56.40;;;;;;5086261;28;20439;-47
2021/04/02 10:29:13;;;;;;;7.90;6.13;;;16.30;56.80;;;;;;5103351;28;20028;-47
2021/04/02 10:31:39;;;;;;;6.85;5.30;;;15.90;56.50;;;;;;5107235;28;20276;-48
2021/04/02 10:34:05;;;;;;;6.75;5.70;;;16.10;57.10;;;;;;5106927;28;20146;-46
2021/04/02 10:36:30;;;;;;;8.32;5.40;;;16.00;56.50;;;;;;5089756;28;20146;-47
2021/04/02 10:38:55;;;;;;;7.05;5.28;;;16.00;55.20;;;;;;5108255;28;20035;-46
2021/04/02 10:41:21;;;;;;;7.15;4.90;;;15.50;55.80;;;;;;5108295;28;20020;-47
2021/04/02 10:43:47;;;;;;;7.07;4.45;;;15.30;57.80;;;;;;5104982;28;20496;-47
2021/04/02 10:46:12;;;;;;;9.55;5.38;;;16.70;56.30;;;;;;5087404;28;20488;-47
2021/04/02 10:48:39;;;;;;;9.10;5.43;;;17.40;54.60;;;;;;5069634;28;20130;-48
2021/04/02 10:51:05;;;;;;;9.25;5.30;;;17.90;53.00;;;;;;5087757;28;20456;-46
2021/04/02 10:53:30;;;;;;;8.23;5.45;;;18.00;49.40;;;;;;5062718;28;20033;-46
2021/04/02 10:56:00;;;;;;;8.60;4.97;;;16.80;53.80;;;;;;5068521;28;20028;-46
2021/04/02 10:58:27;;;;;;;9.47;5.43;;;17.10;53.70;;;;;;5087383;28;20377;-47
2021/04/02 11:00:52;;;;;;;11.68;4.40;;;17.90;55.00;;;;;;5087861;28;20381;-47
2021/04/02 11:03:17;;;;;;;6.15;4.25;;;18.00;52.80;;;;;;5069337;28;20456;-46
2021/04/02 11:05:43;;;;;;;8.85;4.07;;;17.40;51.50;;;;;;5087303;28;20049;-47
2021/04/02 11:08:09;;;;;;;6.85;3.75;;;17.80;52.00;;;;;;5087820;28;20039;-47
2021/04/02 11:10:34;;;;;;;7.15;3.50;;;17.30;52.50;;;;;;5069019;28;20064;-50
2021/04/02 11:13:00;;;;;;;6.75;4.10;;;17.00;54.10;;;;;;5087649;28;20028;-47
2021/04/02 11:15:25;;;;;;;9.52;4.82;;;16.10;55.40;;;;;;5086794;28;20677;-46
2021/04/02 11:17:52;;;;;;;7.07;4.25;;;15.80;54.60;;;;;;5079522;28;20237;-48
2021/04/02 11:20:19;;;;;;;6.35;3.53;;;15.30;57.00;;;;;;5057788;28;20050;-46
2021/04/02 11:22:45;;;;;;;6.57;3.47;;;14.40;57.40;;;;;;5070450;28;20456;-45
2021/04/02 11:25:12;;;;;;;7.90;3.25;;;13.70;60.20;;;;;;5086731;28;20024;-45
2021/04/02 11:27:38;;;;;;;8.75;3.50;;;13.70;59.80;;;;;;5087360;28;20440;-44
2021/04/02 11:30:05;;;;;;;6.50;3.33;;;14.30;62.10;;;;;;5065425;28;20046;-48
2021/04/02 11:32:31;;;;;;;4.28;2.70;;;15.80;56.10;;;;;;5066695;28;20028;-47
2021/04/02 11:34:56;;;;;;;6.80;3.15;;;15.80;54.90;;;;;;5048188;28;20032;-46
2021/04/02 11:37:22;;;;;;;6.25;2.90;;;14.80;55.20;;;;;;5066851;28;20139;-48
2021/04/02 11:39:48;;;;;;;7.75;3.08;;;14.10;57.80;;;;;;5066774;28;20044;-46
2021/04/02 11:42:13;;;;;;;5.80;3.30;;;13.50;59.20;;;;;;5067102;28;20104;-49
2021/04/02 11:44:39;;;;;;;7.20;3.35;;;13.10;60.70;;;;;;5058922;28;20429;-46
2021/04/02 11:47:05;;;;;;;15.23;5.00;;;12.60;61.70;;;;;;5065968;28;20020;-45
2021/04/02 11:49:30;;;;;;;11.02;3.67;;;12.80;61.70;;;;;;5066525;28;20033;-47
2021/04/02 11:51:56;;;;;;;7.95;3.38;;;12.80;64.10;;;;;;5066348;28;20227;-46
2021/04/02 11:54:25;;;;;;;11.40;4.32;;;12.70;62.30;;;;;;5082780;28;20077;-44
2021/04/02 11:56:51;;;;;;;9.65;4.20;;;12.40;63.10;;;;;;5068113;28;20040;-47
2021/04/02 11:59:17;;;;;;;6.57;3.70;;;11.90;65.70;;;;;;5086183;28;20035;-45
2021/04/02 12:01:42;;;;;;;8.15;4.13;;;11.60;66.70;;;;;;5086270;28;20036;-45
2021/04/02 12:04:10;;;;;;;10.02;3.45;;;11.70;67.10;;;;;;5068342;28;20020;-45
2021/04/02 12:06:37;;;;;;;10.93;4.15;;;11.70;66.00;;;;;;5085790;28;20036;-45
2021/04/02 12:09:03;;;;;;;9.65;3.90;;;11.60;66.50;;;;;;5086299;28;20052;-46
2021/04/02 12:11:29;;;;;;;6.70;3.95;;;11.50;65.50;;;;;;5086191;28;20065;-45
2021/04/02 12:13:56;;;;;;;10.70;3.58;;;11.30;65.70;;;;;;5086305;28;20081;-45
2021/04/02 12:16:21;;;;;;;9.20;3.30;;;11.10;67.70;;;;;;5085965;28;20042;-45
2021/04/02 12:18:47;;;;;;;10.32;4.70;;;11.10;67.30;;;;;;5085133;28;20032;-45
2021/04/02 12:21:12;;;;;;;13.38;4.07;;;11.00;69.10;;;;;;5063370;28;20077;-45
2021/04/02 12:23:38;;;;;;;10.57;3.90;;;11.10;68.90;;;;;;5086088;28;20457;-46
2021/04/02 12:26:04;;;;;;;14.20;3.83;;;11.10;68.70;;;;;;5085774;28;20020;-46
2021/04/02 12:28:29;;;;;;;6.90;3.53;;;11.00;68.80;;;;;;5086636;28;20055;-44
2021/04/02 12:30:55;;;;;;;6.93;3.45;;;11.00;67.80;;;;;;5085084;28;20040;-45
2021/04/02 12:33:20;;;;;;;11.55;3.92;;;11.00;68.60;;;;;;5085591;28;20501;-47
2021/04/02 12:35:46;;;;;;;9.60;3.67;;;11.00;67.50;;;;;;5084628;28;20081;-44
2021/04/02 12:38:11;;;;;;;7.05;3.35;;;10.80;69.20;;;;;;5084837;28;20309;-46
2021/04/02 12:40:37;;;;;;;13.50;4.18;;;10.90;68.50;;;;;;5063913;28;20032;-46
2021/04/02 12:43:04;;;;;;;13.68;4.20;;;10.70;67.80;;;;;;5080944;28;20309;-45
2021/04/02 12:45:30;;;;;;;12.52;3.60;;;10.80;69.00;;;;;;5085577;28;20051;-45
2021/04/02 12:47:55;;;;;;;10.98;3.53;;;11.00;68.20;;;;;;5086412;28;20020;-44
2021/04/02 12:50:23;;;;;;;8.98;3.65;;;11.20;69.20;;;;;;5086007;28;20028;-47
2021/04/02 12:52:49;;;;;;;7.82;3.30;;;11.30;66.20;;;;;;5085777;28;20029;-44
2021/04/02 12:55:21;;;;;;;11.65;3.40;;;11.30;67.30;;;;;;5085215;28;20393;-45
2021/04/02 12:57:46;;;;;;;11.77;3.78;;;11.40;67.00;;;;;;5086102;28;20113;-46